This is the latest recevied weather packets stored in our database for station/object KB3KAV. If no packets are shown the sender has not sent any weather packets the latest 10 day(s).
| Time | Temp. | Humidity | Pressure | Rain* | Wind** | Luminosity | Snow |
|---|---|---|---|---|---|---|---|
| 1787526947 | 17.78° C | 94% | 1040.4 hPa | 0 mm | - | 18 W/m² | - |
| 1787526345 | 18.33° C | 93% | 1040.2 hPa | 0 mm | - | 27 W/m² | - |
| 1787525743 | 18.89° C | 92% | 1040.4 hPa | 0 mm | - | 35 W/m² | - |
| 1787525138 | 20° C | 91% | 1040.1 hPa | 0 mm | - | 44 W/m² | - |
| 1787524535 | 20.56° C | 89% | 1040.2 hPa | 0 mm | - | 71 W/m² | - |
| 1787523931 | 20.56° C | 90% | 1040.2 hPa | 0 mm | - | 107 W/m² | - |
| 1787523331 | 21.11° C | 88% | 1040.2 hPa | 0 mm | - | 72 W/m² | - |
| 1787522729 | 20.56° C | 89% | 1040 hPa | 0 mm | - | 222 W/m² | - |
| 1787522125 | 21.67° C | 84% | 1039.7 hPa | 0 mm | - | 63 W/m² | - |
| 1787521524 | 22.78° C | 78% | 1039.5 hPa | 0 mm | - | 261 W/m² | - |
| 1787520920 | 21.11° C | 80% | 1039.5 hPa | 0 mm | - | 390 W/m² | - |
| 1787520317 | 20° C | 91% | 1039.5 hPa | 0 mm | - | 149 W/m² | - |
| 1787519714 | 18.89° C | 93% | 1039.7 hPa | 0 mm | - | 108 W/m² | - |
| 1787519109 | 19.44° C | 91% | 1039.3 hPa | 0 mm | - | 127 W/m² | - |
| 1787518506 | 18.89° C | 91% | 1039.4 hPa | 0 mm | - | 331 W/m² | - |
| 1787517901 | 18.89° C | 92% | 1039.6 hPa | 0 mm | - | 204 W/m² | - |
| 1787517300 | 18.33° C | 92% | 1039.4 hPa | 0 mm | - | 225 W/m² | - |
| 1787516700 | 18.33° C | 90% | 1039.2 hPa | 0 mm | - | 121 W/m² | - |
| 1787516095 | 18.33° C | 89% | 1039.2 hPa | 3.05 mm | - | 101 W/m² | - |
| 1787515493 | 20° C | 78% | 1039.7 hPa | 0 mm | - | 63 W/m² | - |
| 1787514889 | 24.44° C | 60% | 1038.9 hPa | 0 mm | - | 86 W/m² | - |
| 1787514286 | 25.56° C | 57% | 1037.9 hPa | 0 mm | - | 572 W/m² | - |
| 1787513687 | 25.56° C | 63% | 1038.1 hPa | 0 mm | - | 629 W/m² | - |
| 1787513084 | 25° C | 60% | 1038.4 hPa | 0 mm | - | 662 W/m² | - |
| 1787512482 | 25.56° C | 59% | 1038.3 hPa | 0 mm | - | 667 W/m² | - |
* Rain latest hour (hover to see other rain measurements)
** Current wind speed in m/s (hover to see current wind gust speed)